Time;durP1;ratioP1;P1;durP2;ratioP2;P2;SDS_P1;SDS_P2;PMS_P1;PMS_P2;Temp;Humidity;BMP_temperature;BMP_pressure;BME280_temperature;BME280_humidity;BME280_pressure;Samples;Min_cycle;Max_cycle;Signal;HPM_P1;HPM_P2
2022/08/02 00:01:40;;;;;;;1.90;1.23;;;;;;;18.37;58.38;94469.94;4998469;28;20224;-74
2022/08/02 00:04:07;;;;;;;2.67;1.30;;;;;;;18.40;58.37;94469.16;5011477;28;20245;-74
2022/08/02 00:06:35;;;;;;;1.52;1.27;;;;;;;18.36;58.42;94464.81;5008175;28;20209;-73
2022/08/02 00:09:04;;;;;;;2.22;1.23;;;;;;;18.29;58.87;94460.09;5001834;28;20228;-74
2022/08/02 00:11:31;;;;;;;2.95;1.15;;;;;;;18.33;58.02;94463.63;4997782;28;20205;-75
2022/08/02 00:13:58;;;;;;;1.23;1.02;;;;;;;18.30;58.48;94458.91;5000493;28;20206;-74
2022/08/02 00:16:25;;;;;;;2.10;1.20;;;;;;;18.30;57.89;94453.44;5004470;28;20355;-74
2022/08/02 00:18:51;;;;;;;1.23;1.13;;;;;;;18.29;57.88;94462.81;5002396;28;20294;-74
2022/08/02 00:21:18;;;;;;;2.33;1.23;;;;;;;18.32;57.72;94461.25;5010801;28;20205;-74
2022/08/02 00:23:45;;;;;;;1.55;1.20;;;;;;;18.31;57.77;94463.22;5000014;28;20234;-74
2022/08/02 00:26:13;;;;;;;1.60;1.20;;;;;;;18.32;57.56;94458.50;5003932;28;20731;-74
2022/08/02 00:28:40;;;;;;;1.73;1.40;;;;;;;18.32;57.57;94464.78;5002492;28;20201;-74
2022/08/02 00:31:07;;;;;;;2.03;1.17;;;;;;;18.38;57.56;94460.53;4997986;28;20259;-74
2022/08/02 00:33:34;;;;;;;1.55;1.45;;;;;;;18.37;57.88;94452.69;5010947;28;20204;-74
2022/08/02 00:36:02;;;;;;;1.10;1.00;;;;;;;18.38;57.38;94455.03;4997082;28;20278;-74
2022/08/02 00:38:29;;;;;;;1.60;1.20;;;;;;;18.50;57.27;94445.72;5010261;28;20201;-74
2022/08/02 00:40:56;;;;;;;1.60;1.30;;;;;;;18.52;57.22;94453.56;5010003;28;20672;-73
2022/08/02 00:43:24;;;;;;;1.40;1.15;;;;;;;18.44;57.13;94448.06;5015280;28;20236;-74
2022/08/02 00:45:51;;;;;;;1.80;1.10;;;;;;;18.37;57.25;94447.97;5024243;28;20251;-74
2022/08/02 00:48:17;;;;;;;1.38;1.20;;;;;;;18.41;57.47;94456.25;4997914;28;20205;-74
2022/08/02 00:50:45;;;;;;;1.90;1.13;;;;;;;18.36;57.44;94454.63;5008944;28;20217;-73
2022/08/02 00:53:11;;;;;;;1.35;1.25;;;;;;;18.23;57.97;94453.38;5010075;28;20205;-74
2022/08/02 00:55:39;;;;;;;1.75;1.05;;;;;;;18.18;58.46;94448.22;4997717;28;20213;-73
2022/08/02 00:58:07;;;;;;;2.03;1.83;;;;;;;18.06;61.25;94448.53;4997332;28;20208;-73
2022/08/02 01:00:35;;;;;;;2.72;1.25;;;;;;;17.95;63.03;94453.13;5010058;28;20205;-74
2022/08/02 01:03:02;;;;;;;1.90;1.30;;;;;;;17.82;63.97;94454.59;5010320;28;20279;-74
2022/08/02 01:05:29;;;;;;;1.92;1.48;;;;;;;17.77;64.13;94463.16;4997290;28;20233;-73
2022/08/02 01:07:56;;;;;;;2.35;1.60;;;;;;;17.52;66.35;94463.66;5009243;28;20567;-74
2022/08/02 01:10:23;;;;;;;3.35;2.05;;;;;;;17.42;66.91;94458.84;5009930;28;20299;-73
2022/08/02 01:12:50;;;;;;;3.03;2.10;;;;;;;17.28;67.87;94458.69;4996577;28;20756;-73
2022/08/02 01:15:18;;;;;;;1.77;1.30;;;;;;;17.13;68.69;94462.44;5010104;28;20598;-74
2022/08/02 01:17:50;;;;;;;2.58;1.70;;;;;;;17.03;69.14;94458.41;4995782;28;20722;-73
2022/08/02 01:20:36;;;;;;;2.08;1.50;;;;;;;16.97;69.65;94455.19;4998777;28;20197;-73
2022/08/02 01:23:14;;;;;;;2.53;1.70;;;;;;;16.95;70.42;94457.50;5009988;28;20291;-74
2022/08/02 01:25:57;;;;;;;3.60;1.90;;;;;;;16.78;71.44;94452.63;4997519;28;20193;-74
2022/08/02 01:28:36;;;;;;;3.22;1.65;;;;;;;16.69;71.67;94460.28;4998486;28;20211;-72
2022/08/02 01:31:08;;;;;;;2.15;1.60;;;;;;;16.54;72.29;94462.00;5009888;28;20259;-73
2022/08/02 01:33:40;;;;;;;3.75;2.05;;;;;;;16.43;72.73;94463.03;4999109;28;20206;-73
2022/08/02 01:36:11;;;;;;;1.80;1.70;;;;;;;16.38;72.83;94457.88;5003609;28;20194;-73
2022/08/02 01:38:42;;;;;;;1.90;1.63;;;;;;;16.31;72.94;94462.09;5003586;28;20293;-75
2022/08/02 01:41:12;;;;;;;3.22;1.92;;;;;;;16.26;72.83;94473.31;5009712;28;20205;-73
2022/08/02 01:43:43;;;;;;;2.53;1.40;;;;;;;16.21;72.38;94467.41;5009705;28;20217;-73
2022/08/02 01:46:14;;;;;;;2.15;1.42;;;;;;;16.10;72.79;94464.50;5000802;28;20193;-73
2022/08/02 01:48:42;;;;;;;2.25;1.70;;;;;;;16.11;72.52;94468.81;5005994;28;20197;-73
2022/08/02 01:51:13;;;;;;;1.98;1.55;;;;;;;16.02;72.79;94465.53;5009812;28;20209;-73
2022/08/02 01:53:43;;;;;;;4.47;1.77;;;;;;;16.00;73.12;94465.09;4992498;28;20676;-73
2022/08/02 01:56:12;;;;;;;5.25;1.55;;;;;;;15.89;73.69;94472.34;5001014;28;20274;-74
2022/08/02 01:58:42;;;;;;;1.67;1.42;;;;;;;15.86;73.05;94473.06;5009615;28;20213;-73
2022/08/02 02:01:12;;;;;;;3.00;1.55;;;;;;;15.86;73.52;94467.59;5009604;28;20204;-72
2022/08/02 02:03:40;;;;;;;1.58;1.23;;;;;;;15.85;73.52;94471.50;4996758;28;20638;-74
2022/08/02 02:06:10;;;;;;;2.08;1.60;;;;;;;15.82;73.10;94477.69;5009289;28;20572;-75
2022/08/02 02:08:39;;;;;;;1.95;1.45;;;;;;;15.85;72.70;94471.50;4996511;28;20279;-74
2022/08/02 02:11:07;;;;;;;1.92;1.27;;;;;;;15.86;72.80;94478.50;5009179;28;20588;-74
2022/08/02 02:13:39;;;;;;;1.55;1.40;;;;;;;15.74;73.55;94476.75;5009502;28;20216;-74
2022/08/02 02:16:08;;;;;;;2.28;1.58;;;;;;;15.68;73.08;94482.91;4996354;28;20194;-74
2022/08/02 02:18:42;;;;;;;2.13;1.67;;;;;;;15.91;72.93;94475.50;5002110;28;20272;-73
2022/08/02 02:21:09;;;;;;;2.58;1.63;;;;;;;15.83;73.19;94480.06;5010737;28;20232;-74
2022/08/02 02:23:36;;;;;;;5.55;1.50;;;;;;;15.76;73.47;94468.19;5012961;28;20579;-74
2022/08/02 02:26:05;;;;;;;2.85;1.45;;;;;;;15.73;73.93;94468.94;5012288;28;20216;-74
2022/08/02 02:28:34;;;;;;;2.45;1.30;;;;;;;15.63;73.89;94476.56;5012541;28;20220;-74
2022/08/02 02:31:05;;;;;;;2.60;1.73;;;;;;;15.66;74.10;94474.28;5012943;28;20631;-74
2022/08/02 02:33:38;;;;;;;2.17;1.52;;;;;;;15.61;74.24;94487.06;5012970;28;20204;-74
2022/08/02 02:36:08;;;;;;;2.30;1.60;;;;;;;15.54;74.59;94481.47;5012500;28;20742;-74
2022/08/02 02:38:36;;;;;;;2.78;1.50;;;;;;;15.46;74.77;94482.47;5011982;28;20205;-74
2022/08/02 02:41:06;;;;;;;4.22;1.80;;;;;;;15.48;74.64;94474.72;4999432;28;20205;-74
2022/08/02 02:43:35;;;;;;;2.42;1.50;;;;;;;15.55;74.23;94463.16;5022460;28;20239;-74
2022/08/02 02:46:05;;;;;;;1.73;1.52;;;;;;;15.63;74.26;94462.91;5012913;28;20227;-73
2022/08/02 02:48:34;;;;;;;1.45;1.35;;;;;;;15.70;74.10;94469.69;5012436;28;20201;-73
2022/08/02 02:51:04;;;;;;;1.77;1.23;;;;;;;15.56;74.04;94476.47;5003538;28;20233;-73
2022/08/02 02:53:31;;;;;;;2.25;1.23;;;;;;;15.56;74.32;94476.47;5008029;28;20259;-73
2022/08/02 02:55:59;;;;;;;8.75;2.10;;;;;;;15.46;74.60;94474.28;5012380;28;20217;-73
2022/08/02 02:58:26;;;;;;;1.55;1.42;;;;;;;15.41;74.49;94479.25;4999606;28;20209;-73
2022/08/02 03:03:40;;;;;;;3.65;2.10;;;;;;;15.32;75.01;94471.28;5011080;28;20427;-73
2022/08/02 03:06:07;;;;;;;2.63;1.48;;;;;;;15.31;74.59;94469.69;5012315;28;20237;-74
2022/08/02 03:08:34;;;;;;;3.30;1.45;;;;;;;15.22;74.40;94478.13;4999214;28;20217;-73
2022/08/02 03:11:01;;;;;;;2.22;1.20;;;;;;;15.15;74.91;94477.22;5012136;28;20267;-73
2022/08/02 03:13:28;;;;;;;2.47;1.65;;;;;;;15.15;75.41;94471.75;5011983;28;20201;-73
2022/08/02 03:15:56;;;;;;;2.65;1.50;;;;;;;15.23;74.96;94470.72;4999095;28;20209;-73
2022/08/02 03:18:33;;;;;;;1.75;1.48;;;;;;;15.30;74.48;94479.06;4999172;28;20236;-73
2022/08/02 03:21:06;;;;;;;3.33;1.45;;;;;;;15.28;74.78;94479.41;5010015;28;20197;-73
2022/08/02 03:23:34;;;;;;;1.77;1.40;;;;;;;15.42;74.57;94476.16;5001472;28;20279;-73
2022/08/02 03:26:01;;;;;;;1.48;1.33;;;;;;;15.47;74.21;94478.59;5012033;28;20239;-74
2022/08/02 03:28:28;;;;;;;2.15;1.38;;;;;;;15.58;74.17;94468.69;5011928;28;20209;-74
2022/08/02 03:30:55;;;;;;;2.08;1.70;;;;;;;15.98;73.13;94470.94;5010906;28;20209;-73
2022/08/02 03:33:24;;;;;;;2.25;1.65;;;;;;;16.73;71.45;94476.75;5011947;28;20213;-74
2022/08/02 03:35:53;;;;;;;4.63;1.90;;;;;;;17.49;68.18;94458.16;5011480;28;20209;-73
2022/08/02 03:38:23;;;;;;;2.08;1.40;;;;;;;18.20;65.64;94456.84;5011178;28;20263;-74
2022/08/02 03:40:50;;;;;;;2.17;1.67;;;;;;;19.33;61.91;94458.72;5011753;28;20213;-74
2022/08/02 03:43:17;;;;;;;2.97;1.77;;;;;;;20.19;59.03;94460.47;5011566;28;20250;-74
2022/08/02 03:45:47;;;;;;;2.30;1.67;;;;;;;20.37;57.61;94450.25;5011134;28;20641;-74
2022/08/02 03:48:15;;;;;;;2.03;1.60;;;;;;;20.36;57.80;94456.19;5011668;28;20292;-74
2022/08/02 03:50:43;;;;;;;2.47;1.45;;;;;;;21.07;56.35;94459.56;5006263;28;20256;-74
2022/08/02 03:53:10;;;;;;;2.60;1.75;;;;;;;22.51;52.74;94456.41;5004248;28;20201;-75
2022/08/02 03:55:39;;;;;;;2.10;1.65;;;;;;;23.32;49.66;94454.00;4998158;28;20319;-74
2022/08/02 03:58:06;;;;;;;2.58;1.83;;;;;;;23.90;48.17;94455.66;5010992;28;20582;-73
2022/08/02 04:00:33;;;;;;;2.45;1.60;;;;;;;24.72;46.79;94460.72;4997990;28;20205;-74
2022/08/02 04:03:00;;;;;;;2.58;1.85;;;;;;;24.70;46.06;94463.13;5010980;28;20209;-73
2022/08/02 04:05:27;;;;;;;3.20;1.90;;;;;;;24.48;46.28;94466.66;4997946;28;20318;-74
2022/08/02 04:07:56;;;;;;;2.08;1.77;;;;;;;24.73;45.79;94467.81;4997913;28;20229;-74
2022/08/02 04:10:23;;;;;;;2.15;1.90;;;;;;;25.72;44.02;94469.94;5003694;28;20209;-74
2022/08/02 04:12:51;;;;;;;1.75;1.60;;;;;;;26.62;42.54;94473.06;5004943;28;20258;-73
2022/08/02 04:15:18;;;;;;;2.42;1.90;;;;;;;27.39;40.65;94477.81;4999300;28;20669;-73
2022/08/02 04:17:50;;;;;;;2.17;1.85;;;;;;;27.73;39.91;94476.53;4998065;28;21016;-73
2022/08/02 04:20:20;;;;;;;2.70;1.67;;;;;;;27.81;39.06;94481.44;5010890;28;20636;-73
2022/08/02 04:22:52;;;;;;;1.63;1.52;;;;;;;27.37;40.02;94488.59;5008278;28;20730;-74
2022/08/02 04:25:20;;;;;;;2.83;2.10;;;;;;;27.76;39.37;94489.53;5002040;28;20275;-72
2022/08/02 04:27:48;;;;;;;2.70;2.15;;;;;;;28.07;38.33;94482.25;5010675;28;20351;-73
2022/08/02 04:30:18;;;;;;;2.80;2.10;;;;;;;27.79;38.99;94483.09;5010996;28;20259;-73
2022/08/02 04:32:46;;;;;;;2.97;2.40;;;;;;;28.88;36.76;94478.94;5010863;28;20205;-73
2022/08/02 04:35:13;;;;;;;3.60;1.92;;;;;;;29.46;36.00;94475.75;5010401;28;20279;-73
2022/08/02 04:37:41;;;;;;;3.90;1.90;;;;;;;29.43;35.28;94479.47;4996593;28;20212;-73
2022/08/02 04:40:10;;;;;;;3.60;1.95;;;;;;;29.88;35.18;94469.84;5009909;28;20209;-73
2022/08/02 04:42:37;;;;;;;2.60;2.10;;;;;;;30.59;34.30;94467.94;5012123;28;20287;-73
2022/08/02 04:45:05;;;;;;;2.47;2.08;;;;;;;30.70;33.37;94475.88;5017528;28;20241;-73
2022/08/02 04:47:33;;;;;;;2.50;2.15;;;;;;;31.53;32.66;94477.59;4997761;28;20209;-73
2022/08/02 04:50:00;;;;;;;2.40;2.20;;;;;;;30.93;32.82;94478.09;5010325;28;20633;-74
2022/08/02 04:52:27;;;;;;;2.50;2.30;;;;;;;30.96;33.03;94473.59;5010528;28;20216;-74
2022/08/02 04:54:54;;;;;;;2.63;2.42;;;;;;;32.09;31.73;94479.09;4997115;28;20661;-74
2022/08/02 05:00:09;;;;;;;3.55;2.10;;;;;;;32.67;30.45;94466.75;5003938;28;20252;-74
2022/08/02 05:02:37;;;;;;;2.65;2.20;;;;;;;32.47;30.79;94475.72;5001057;28;20208;-73
2022/08/02 05:05:05;;;;;;;2.47;2.17;;;;;;;33.21;29.81;94470.53;4995628;28;20291;-73
2022/08/02 05:07:32;;;;;;;3.92;2.55;;;;;;;32.54;30.40;94474.59;5004344;28;20221;-74
2022/08/02 05:09:59;;;;;;;5.05;2.55;;;;;;;32.30;30.88;94478.13;5009618;28;20263;-73
2022/08/02 05:12:25;;;;;;;3.53;2.63;;;;;;;32.40;30.97;94476.06;4998062;28;21072;-74
2022/08/02 05:14:52;;;;;;;3.65;2.47;;;;;;;32.53;30.81;94471.00;5007855;28;20643;-72
2022/08/02 05:17:19;;;;;;;5.18;2.90;;;;;;;31.95;31.52;94485.34;5009810;28;20667;-72
2022/08/02 05:19:47;;;;;;;4.40;3.00;;;;;;;31.30;32.46;94486.59;5004905;28;20311;-73
2022/08/02 05:22:14;;;;;;;4.55;2.60;;;;;;;31.21;32.57;94484.56;5002635;28;20205;-72
2022/08/02 05:24:41;;;;;;;4.72;2.67;;;;;;;31.79;31.58;94487.25;5025284;28;20220;-72
2022/08/02 05:27:08;;;;;;;8.95;2.65;;;;;;;31.20;32.13;94487.81;5017233;28;20220;-73
2022/08/02 05:29:35;;;;;;;4.47;2.97;;;;;;;29.65;33.89;94491.44;5004052;28;20206;-74
2022/08/02 05:32:01;;;;;;;6.93;2.90;;;;;;;30.64;32.92;94492.47;5002406;28;20204;-74
2022/08/02 05:34:28;;;;;;;3.00;2.03;;;;;;;29.78;33.39;94499.75;4996225;28;20251;-73
2022/08/02 05:36:57;;;;;;;4.13;2.15;;;;;;;31.18;30.81;94484.69;5009727;28;20216;-73
2022/08/02 05:39:23;;;;;;;4.75;2.50;;;;;;;32.63;29.41;94494.22;5009198;28;20665;-73
2022/08/02 05:41:50;;;;;;;2.67;2.35;;;;;;;29.64;32.58;94501.03;5009654;28;20208;-77
2022/08/02 05:44:17;;;;;;;3.50;2.20;;;;;;;28.58;35.08;94510.94;5015691;28;20232;-74
2022/08/02 05:46:44;;;;;;;4.18;2.40;;;;;;;29.43;33.93;94507.38;4996427;28;20619;-74
2022/08/02 05:49:11;;;;;;;3.47;1.80;;;;;;;30.29;32.67;94507.84;5009132;28;20790;-75
2022/08/02 05:51:40;;;;;;;2.97;2.20;;;;;;;29.16;33.70;94512.69;5009214;28;20197;-73
2022/08/02 05:54:19;;;;;;;3.25;2.22;;;;;;;30.53;32.29;94496.91;5000080;28;20208;-75
2022/08/02 05:56:55;;;;;;;2.88;2.30;;;;;;;31.48;29.93;94509.00;5010656;28;20205;-74
2022/08/02 05:59:33;;;;;;;4.25;1.60;;;;;;;31.18;30.33;94510.69;5006466;28;20643;-78
2022/08/02 06:02:04;;;;;;;2.88;1.45;;;;;;;29.22;32.90;94516.47;5014248;28;20235;-74
2022/08/02 06:04:43;;;;;;;1.92;1.67;;;;;;;29.42;32.85;94516.97;5013020;28;20287;-75
2022/08/02 06:07:12;;;;;;;2.53;1.83;;;;;;;30.12;31.89;94518.44;5001712;28;20274;-73
2022/08/02 06:09:42;;;;;;;3.50;2.20;;;;;;;31.68;29.71;94512.16;5011721;28;20201;-73
2022/08/02 06:12:11;;;;;;;2.00;1.67;;;;;;;31.74;28.69;94517.91;5002302;28;20213;-74
2022/08/02 06:14:40;;;;;;;2.85;1.50;;;;;;;32.05;29.09;94518.50;5010486;28;20276;-74
2022/08/02 06:17:08;;;;;;;2.28;1.60;;;;;;;30.60;30.39;94516.25;5002378;28;20205;-74
2022/08/02 06:19:37;;;;;;;1.55;1.30;;;;;;;28.69;33.48;94524.56;4999600;28;20700;-74
2022/08/02 06:22:14;;;;;;;2.00;1.52;;;;;;;28.79;32.98;94531.84;5003679;28;20213;-71
2022/08/02 06:24:44;;;;;;;5.20;2.05;;;;;;;28.42;33.92;94529.81;5006911;28;20316;-74
2022/08/02 06:27:13;;;;;;;1.85;1.63;;;;;;;28.34;33.44;94520.09;5004856;28;20722;-76
2022/08/02 06:29:41;;;;;;;1.42;1.33;;;;;;;28.74;32.75;94535.13;5000040;28;20209;-77
2022/08/02 06:32:08;;;;;;;1.60;1.50;;;;;;;28.34;33.80;94534.81;5012755;28;20710;-73
2022/08/02 06:34:37;;;;;;;2.45;1.95;;;;;;;29.95;32.02;94537.41;5011801;28;20271;-74
2022/08/02 06:37:13;;;;;;;2.17;1.42;;;;;;;30.85;30.08;94541.22;5006633;28;20380;-73
2022/08/02 06:39:48;;;;;;;1.75;1.30;;;;;;;30.29;30.62;94542.16;4998389;28;20563;-74
2022/08/02 06:42:26;;;;;;;1.65;1.30;;;;;;;30.02;31.89;94548.38;5011260;28;20239;-74
2022/08/02 06:44:53;;;;;;;1.67;1.58;;;;;;;29.11;32.79;94549.53;5009565;28;20667;-74
2022/08/02 06:47:20;;;;;;;1.77;1.67;;;;;;;28.44;34.36;94544.06;5012083;28;20272;-73
2022/08/02 06:49:46;;;;;;;3.47;1.60;;;;;;;30.31;32.29;94534.09;5012511;28;20280;-74
2022/08/02 06:52:13;;;;;;;3.22;1.70;;;;;;;30.02;32.31;94536.41;5006957;28;20205;-74
2022/08/02 06:54:41;;;;;;;2.40;1.80;;;;;;;28.10;34.74;94542.66;5005100;28;20220;-72
2022/08/02 06:57:09;;;;;;;1.75;1.20;;;;;;;26.71;36.27;94551.06;4999664;28;20283;-79
2022/08/02 06:59:36;;;;;;;1.55;1.33;;;;;;;27.49;35.48;94543.53;5012623;28;20307;-74
2022/08/02 07:02:04;;;;;;;3.03;1.30;;;;;;;27.84;35.39;94541.03;5007074;28;20197;-72
2022/08/02 07:04:32;;;;;;;1.35;1.25;;;;;;;27.15;35.87;94552.38;5003734;28;20233;-72
2022/08/02 07:06:59;;;;;;;1.35;1.25;;;;;;;28.75;33.82;94542.28;5011824;28;20252;-74
2022/08/02 07:09:26;;;;;;;1.67;1.40;;;;;;;28.77;33.83;94534.25;5000210;28;20209;-74
2022/08/02 07:11:52;;;;;;;1.65;1.52;;;;;;;30.04;33.35;94522.75;5005792;28;20228;-73
2022/08/02 07:14:21;;;;;;;1.38;1.20;;;;;;;28.55;33.93;94538.94;5005469;28;20216;-72
2022/08/02 07:16:48;;;;;;;4.35;1.42;;;;;;;28.61;34.26;94534.38;5012640;28;20201;-73
2022/08/02 07:19:14;;;;;;;1.60;1.27;;;;;;;29.42;33.73;94533.72;5012257;28;20213;-72
2022/08/02 07:21:41;;;;;;;1.30;1.20;;;;;;;28.16;35.55;94540.88;5004919;28;20252;-73
2022/08/02 07:24:08;;;;;;;2.35;1.20;;;;;;;27.69;36.53;94551.00;5006029;28;20270;-72
2022/08/02 07:26:35;;;;;;;2.00;1.42;;;;;;;28.50;34.58;94531.13;5011698;28;20266;-74
2022/08/02 07:29:02;;;;;;;1.42;1.30;;;;;;;28.82;34.50;94536.53;5010909;28;20672;-72
2022/08/02 07:31:30;;;;;;;3.08;1.70;;;;;;;28.47;35.28;94537.59;5000498;28;20267;-73
2022/08/02 07:33:56;;;;;;;1.83;1.40;;;;;;;28.14;35.14;94543.34;4998967;28;20250;-75
2022/08/02 07:36:23;;;;;;;1.58;1.30;;;;;;;27.91;35.74;94538.03;5012056;28;20283;-74
2022/08/02 07:38:50;;;;;;;2.03;1.45;;;;;;;28.51;34.86;94527.13;5011860;28;20231;-73
2022/08/02 07:41:17;;;;;;;2.38;1.75;;;;;;;27.69;36.46;94540.66;5012245;28;20270;-73
2022/08/02 07:43:44;;;;;;;2.60;1.55;;;;;;;27.05;37.43;94541.53;5012019;28;20216;-75
2022/08/02 07:46:11;;;;;;;1.73;1.38;;;;;;;27.45;37.52;94542.09;5010904;28;20229;-73
2022/08/02 07:48:39;;;;;;;1.10;1.00;;;;;;;27.67;36.93;94533.94;5011710;28;20274;-74
2022/08/02 07:51:06;;;;;;;1.48;1.30;;;;;;;28.75;34.91;94514.41;5011885;28;20355;-73
2022/08/02 07:53:33;;;;;;;2.05;1.40;;;;;;;28.34;36.00;94520.09;5011968;28;20208;-73
2022/08/02 07:55:59;;;;;;;1.00;0.90;;;;;;;27.61;36.12;94527.38;5011656;28;20245;-75
2022/08/02 07:58:26;;;;;;;1.35;1.13;;;;;;;28.34;35.65;94526.44;4997977;28;20202;-73
2022/08/02 08:00:53;;;;;;;1.45;1.13;;;;;;;29.50;34.78;94523.88;5011646;28;20263;-73
2022/08/02 08:03:20;;;;;;;1.33;1.08;;;;;;;30.49;32.36;94518.63;4998522;28;20216;-73
2022/08/02 08:05:48;;;;;;;1.20;1.10;;;;;;;29.86;32.89;94522.59;5001624;28;20296;-73
2022/08/02 09:11:48;;;;;;;1.88;1.30;;;;;;;27.61;36.83;94527.38;5134298;27;1365060;-84
2022/08/02 09:14:26;;;;;;;1.20;1.10;;;;;;;27.54;37.40;94529.09;5166668;27;20200;-82
2022/08/02 09:16:53;;;;;;;1.05;0.95;;;;;;;26.74;37.05;94533.50;5165020;27;20274;-79
2022/08/02 09:19:22;;;;;;;1.08;0.90;;;;;;;27.02;36.42;94529.28;5171674;27;20199;-84
2022/08/02 09:21:50;;;;;;;4.78;0.90;;;;;;;27.78;35.40;94521.28;5171303;27;20200;-83
2022/08/02 09:24:19;;;;;;;1.15;0.90;;;;;;;28.01;35.28;94523.03;5171287;27;20207;-82
2022/08/02 09:26:46;;;;;;;0.90;0.90;;;;;;;28.62;34.54;94510.84;5170808;27;20199;-82
2022/08/02 09:29:15;;;;;;;1.05;0.95;;;;;;;28.69;34.78;94516.19;5170753;27;20206;-83
2022/08/02 09:31:43;;;;;;;2.20;1.13;;;;;;;28.58;35.82;94513.72;5170369;27;20227;-79
2022/08/02 09:34:10;;;;;;;1.45;1.10;;;;;;;28.80;35.26;94511.09;5170919;27;20557;-79
2022/08/02 09:36:42;;;;;;;0.75;0.70;;;;;;;27.67;34.68;94509.69;5167411;27;20677;-78
2022/08/02 09:39:10;;;;;;;0.77;0.75;;;;;;;27.64;35.64;94516.13;5170772;27;20207;-83
2022/08/02 09:41:40;;;;;;;1.10;0.90;;;;;;;27.63;34.97;94511.00;5170227;27;20199;-81
2022/08/02 09:44:08;;;;;;;2.33;1.10;;;;;;;28.13;35.20;94510.34;5170410;27;20200;-84
2022/08/02 09:46:38;;;;;;;1.15;1.00;;;;;;;28.46;34.44;94502.59;5164851;27;20612;-84
2022/08/02 09:49:08;;;;;;;1.92;1.17;;;;;;;28.44;34.96;94505.81;5161642;27;20260;-81
2022/08/02 09:51:36;;;;;;;1.67;1.08;;;;;;;28.52;33.98;94501.59;5169497;27;20251;-79
2022/08/02 09:54:06;;;;;;;1.05;0.98;;;;;;;28.00;34.95;94499.19;5169518;27;20241;-82
2022/08/02 09:56:44;;;;;;;1.55;1.35;;;;;;;27.76;36.37;94489.53;5170038;27;20195;-82
2022/08/02 09:59:11;;;;;;;1.23;1.05;;;;;;;27.82;35.83;94487.78;5163651;27;20212;-82
2022/08/02 10:01:40;;;;;;;3.17;1.10;;;;;;;27.87;35.84;94496.38;5148814;27;20231;-83
2022/08/02 10:04:10;;;;;;;1.88;1.10;;;;;;;28.08;35.90;94494.19;5149020;27;20203;-81
2022/08/02 10:06:37;;;;;;;5.10;1.13;;;;;;;28.18;34.72;94499.44;5149477;27;20201;-84
2022/08/02 10:09:05;;;;;;;1.25;1.05;;;;;;;28.34;35.04;94489.44;5148836;27;20257;-84
2022/08/02 10:11:33;;;;;;;0.80;0.80;;;;;;;28.35;35.52;94485.41;5148125;27;20251;-85
2022/08/02 10:14:06;;;;;;;1.13;1.00;;;;;;;29.09;33.93;94490.63;5139455;27;20201;-85
2022/08/02 10:16:34;;;;;;;1.63;1.15;;;;;;;29.80;33.59;94485.31;5134911;27;20641;-87
2022/08/02 10:19:06;;;;;;;1.17;1.08;;;;;;;30.22;32.19;94489.31;5135540;27;20196;-84
2022/08/02 10:21:40;;;;;;;1.05;0.95;;;;;;;29.76;33.12;94490.25;5143995;27;20234;-87
2022/08/02 10:24:12;;;;;;;1.33;1.05;;;;;;;28.88;34.52;94484.50;5135639;27;20201;-83
2022/08/02 10:26:42;;;;;;;1.10;0.90;;;;;;;28.20;35.78;94491.44;5135359;27;20266;-79
2022/08/02 10:29:10;;;;;;;2.28;1.30;;;;;;;28.20;36.65;94485.84;5135284;27;20221;-85
2022/08/02 10:31:43;;;;;;;1.17;1.08;;;;;;;28.44;35.77;94482.72;5134684;27;20227;-87
2022/08/02 10:34:14;;;;;;;0.80;0.80;;;;;;;28.56;35.66;94479.19;5134289;27;20201;-84
2022/08/02 10:36:43;;;;;;;2.08;1.10;;;;;;;28.43;35.62;94476.38;5134564;27;20632;-86
2022/08/02 10:39:10;;;;;;;1.02;0.90;;;;;;;29.15;34.12;94480.41;5134291;27;20201;-84
2022/08/02 10:41:45;;;;;;;1.25;0.95;;;;;;;29.22;33.19;94482.97;5134744;27;20257;-85
2022/08/02 10:44:28;;;;;;;1.08;0.93;;;;;;;29.56;33.04;94482.19;5133998;27;20253;-83
2022/08/02 10:47:22;;;;;;;1.20;0.93;;;;;;;29.45;32.90;94479.78;5128614;27;20201;-82
2022/08/02 10:49:52;;;;;;;1.08;0.80;;;;;;;30.08;32.31;94466.72;5120544;27;20213;-82
2022/08/02 10:52:20;;;;;;;1.42;1.10;;;;;;;29.70;32.77;94470.50;5134038;27;20625;-85
2022/08/02 10:54:57;;;;;;;0.93;0.90;;;;;;;29.04;34.30;94469.63;5134376;27;20204;-85
2022/08/02 10:57:25;;;;;;;1.30;0.90;;;;;;;28.94;34.29;94474.34;5134631;27;20193;-86
2022/08/02 11:00:01;;;;;;;1.10;0.80;;;;;;;28.67;35.02;94470.47;5134063;27;20236;-86
2022/08/02 11:02:42;;;;;;;0.80;0.80;;;;;;;29.30;34.83;94471.09;5134015;27;20222;-84
2022/08/02 11:05:17;;;;;;;1.05;0.95;;;;;;;29.79;33.45;94461.44;5133626;27;20209;-84
2022/08/02 11:07:47;;;;;;;0.70;0.70;;;;;;;29.47;33.71;94457.00;5113663;28;20244;-84
2022/08/02 11:10:32;;;;;;;0.88;0.80;;;;;;;28.05;36.25;94472.78;5127851;27;20241;-81
2022/08/02 11:13:01;;;;;;;1.70;0.82;;;;;;;27.98;36.22;94468.22;5127988;27;20254;-80
2022/08/02 11:15:28;;;;;;;1.42;0.98;;;;;;;28.13;35.50;94458.19;5130613;27;20947;-82
2022/08/02 11:17:57;;;;;;;0.70;0.70;;;;;;;28.76;34.25;94471.34;5130022;27;20197;-79
2022/08/02 11:20:26;;;;;;;2.97;0.75;;;;;;;29.08;35.30;94475.09;5118708;27;20644;-83
2022/08/02 11:22:55;;;;;;;1.00;0.88;;;;;;;29.20;33.90;94465.91;5133170;27;20196;-82
2022/08/02 11:25:35;;;;;;;0.88;0.80;;;;;;;29.20;34.15;94463.13;5132886;27;20208;-84
2022/08/02 11:28:11;;;;;;;0.98;0.90;;;;;;;29.64;33.93;94456.38;5133428;27;20204;-84
2022/08/02 11:30:38;;;;;;;1.23;0.95;;;;;;;29.37;34.15;94464.50;5133683;27;20228;-86
2022/08/02 11:33:06;;;;;;;0.75;0.70;;;;;;;29.94;32.49;94462.41;5132860;27;20242;-84
2022/08/02 11:35:35;;;;;;;1.42;0.90;;;;;;;30.69;32.65;94460.34;5132944;27;20739;-84
2022/08/02 11:38:17;;;;;;;1.63;0.95;;;;;;;31.07;31.51;94460.72;5133902;27;20294;-86
2022/08/02 11:40:45;;;;;;;1.15;1.05;;;;;;;31.16;31.81;94454.41;5134140;27;20204;-84
2022/08/02 11:43:20;;;;;;;1.02;0.93;;;;;;;29.81;32.31;94464.50;5133737;27;20200;-81
2022/08/02 11:45:47;;;;;;;0.85;0.77;;;;;;;29.44;33.50;94467.06;5133029;27;20193;-84
2022/08/02 11:48:14;;;;;;;1.20;0.90;;;;;;;29.28;34.20;94456.81;5125819;27;20205;-82
2022/08/02 11:50:42;;;;;;;0.93;0.85;;;;;;;29.07;34.78;94456.78;5113186;27;20221;-76
2022/08/02 11:53:16;;;;;;;1.00;0.90;;;;;;;28.80;34.27;94460.88;5125858;27;20201;-80
2022/08/02 11:55:43;;;;;;;1.42;1.08;;;;;;;28.99;35.22;94468.19;5127619;27;20284;-82
2022/08/02 11:58:10;;;;;;;1.13;0.85;;;;;;;29.18;34.34;94455.19;5124615;27;20578;-83
2022/08/02 12:00:37;;;;;;;0.85;0.70;;;;;;;28.69;34.93;94454.84;5127928;27;20232;-84
2022/08/02 12:03:04;;;;;;;1.95;0.80;;;;;;;29.00;35.23;94453.00;5124293;27;20599;-80
2022/08/02 12:05:31;;;;;;;1.20;0.90;;;;;;;29.58;34.43;94457.38;5125729;27;20201;-86
2022/08/02 12:08:00;;;;;;;1.10;0.70;;;;;;;28.96;34.78;94457.94;5120807;27;20804;-75
2022/08/02 12:10:27;;;;;;;1.55;0.80;;;;;;;27.76;36.26;94456.13;5118618;27;20233;-75
2022/08/02 12:12:55;;;;;;;1.08;0.90;;;;;;;27.40;36.82;94468.25;5128301;27;20204;-87
2022/08/02 12:15:33;;;;;;;1.02;0.90;;;;;;;27.81;35.90;94456.38;5132024;27;20809;-85
2022/08/02 12:20:45;;;;;;;1.10;0.88;;;;;;;28.81;34.60;94456.09;5119989;27;20200;-80
2022/08/02 12:23:14;;;;;;;0.95;0.82;;;;;;;28.75;34.65;94453.03;5131833;27;20711;-82
2022/08/02 12:25:41;;;;;;;0.77;0.77;;;;;;;28.39;35.46;94452.66;5132671;27;20201;-82
2022/08/02 12:28:21;;;;;;;1.10;1.00;;;;;;;28.38;34.91;94448.31;5132366;27;20205;-80
2022/08/02 12:30:53;;;;;;;1.42;0.90;;;;;;;28.95;34.77;94453.59;5131877;27;20698;-84
2022/08/02 12:33:21;;;;;;;0.52;0.52;;;;;;;29.67;33.86;94447.06;5131891;27;20723;-84
2022/08/02 12:35:48;;;;;;;1.10;0.95;;;;;;;30.02;34.02;94444.19;5131603;27;20201;-84
2022/08/02 12:38:16;;;;;;;0.60;0.60;;;;;;;29.70;33.60;94443.34;5130973;27;20276;-82
2022/08/02 12:40:44;;;;;;;1.08;0.80;;;;;;;29.47;35.04;94449.41;5131671;27;20205;-85
2022/08/02 12:43:18;;;;;;;1.13;0.70;;;;;;;29.00;34.63;94446.66;5131391;27;20199;-76
2022/08/02 12:45:48;;;;;;;0.70;0.70;;;;;;;28.16;36.29;94451.72;5126395;27;20190;-87
2022/08/02 12:48:16;;;;;;;1.88;0.85;;;;;;;28.22;35.93;94461.13;5118301;27;20605;-78
2022/08/02 12:50:43;;;;;;;0.90;0.90;;;;;;;28.14;36.01;94448.63;5131925;27;20197;-84
2022/08/02 12:53:14;;;;;;;1.05;0.95;;;;;;;28.81;35.42;94456.09;5117786;27;20194;-83
2022/08/02 12:55:50;;;;;;;1.05;0.75;;;;;;;29.38;34.41;94442.97;5124930;27;20189;-84